createdAt,value
2023-02-11T00:00:42.911Z,40.55
2023-02-11T00:03:10.604Z,42.33
2023-02-11T00:05:37.910Z,39.33
2023-02-11T00:08:05.578Z,41.67
2023-02-11T00:10:33.212Z,38.40
2023-02-11T00:13:00.469Z,37.70
2023-02-11T00:15:27.987Z,35.10
2023-02-11T00:17:56.194Z,30.20
2023-02-11T00:20:23.413Z,25.60
2023-02-11T00:22:50.732Z,25.45
2023-02-11T00:25:18.435Z,23.60
2023-02-11T00:27:45.759Z,22.42
2023-02-11T00:30:13.586Z,20.25
2023-02-11T00:32:42.799Z,23.48
2023-02-11T00:35:10.115Z,22.10
2023-02-11T00:37:39.290Z,25.92
2023-02-11T00:40:07.455Z,23.60
2023-02-11T00:42:35.798Z,23.60
2023-02-11T00:45:03.569Z,26.80
2023-02-11T00:47:31.221Z,28.58
2023-02-11T00:50:01.299Z,27.25
2023-02-11T00:52:30.052Z,32.58
2023-02-11T00:54:57.724Z,32.45
2023-02-11T00:57:25.136Z,30.75
2023-02-11T00:59:52.376Z,29.87
2023-02-11T01:02:19.974Z,29.48
2023-02-11T01:04:47.427Z,29.90
2023-02-11T01:07:14.827Z,28.02
2023-02-11T01:09:42.480Z,28.48
2023-02-11T01:12:09.834Z,28.87
2023-02-11T01:14:37.165Z,29.00
2023-02-11T01:17:06.350Z,27.08
2023-02-11T01:19:33.886Z,26.10
2023-02-11T01:22:01.481Z,26.95
2023-02-11T01:24:29.254Z,33.05
2023-02-11T01:26:57.140Z,28.30
2023-02-11T01:29:24.719Z,22.98
2023-02-11T01:31:54.881Z,28.83
2023-02-11T01:34:22.174Z,29.67
2023-02-11T01:36:50.384Z,29.48
2023-02-11T01:39:17.979Z,31.17
2023-02-11T01:41:46.902Z,30.85
2023-02-11T01:44:36.742Z,30.42
2023-02-11T01:47:06.830Z,29.25
2023-02-11T01:49:41.793Z,26.37
2023-02-11T01:52:19.286Z,23.50
2023-02-11T01:55:10.063Z,26.75
2023-02-11T01:57:41.864Z,26.35
2023-02-11T02:00:09.278Z,28.15
2023-02-11T02:02:44.627Z,27.15
2023-02-11T02:05:58.169Z,24.48
2023-02-11T02:08:32.336Z,24.40
2023-02-11T02:11:03.216Z,27.67
2023-02-11T02:13:32.762Z,26.62
2023-02-11T02:16:06.653Z,26.67
2023-02-11T02:18:35.056Z,25.10
2023-02-11T02:21:45.097Z,22.83
2023-02-11T02:24:49.484Z,20.88
2023-02-11T02:27:42.454Z,19.48
2023-02-11T02:30:42.150Z,20.77
2023-02-11T02:33:22.805Z,21.08
2023-02-11T02:36:24.428Z,21.42
2023-02-11T02:39:01.263Z,20.48
2023-02-11T02:41:32.689Z,21.85
2023-02-11T02:44:00.762Z,20.12
2023-02-11T02:46:30.616Z,18.80
2023-02-11T02:48:58.830Z,21.45
2023-02-11T02:51:48.266Z,19.17
2023-02-11T02:54:46.681Z,20.80
2023-02-11T02:57:26.431Z,18.85
2023-02-11T03:00:29.979Z,18.15
2023-02-11T03:03:16.442Z,21.67
2023-02-11T03:06:05.220Z,23.67
2023-02-11T03:11:06.643Z,19.25
2023-02-11T03:13:36.949Z,20.88
2023-02-11T03:16:11.831Z,21.90
2023-02-11T03:18:46.536Z,20.42
2023-02-11T03:21:16.414Z,28.87
2023-02-11T03:23:55.315Z,26.40
2023-02-11T03:26:34.668Z,21.20
2023-02-11T03:29:32.263Z,21.10
2023-02-11T03:32:17.617Z,23.35
2023-02-11T03:35:00.416Z,26.27
2023-02-11T03:37:36.841Z,22.20
2023-02-11T03:40:12.239Z,25.48
2023-02-11T03:43:12.916Z,22.70
2023-02-11T03:45:42.173Z,20.65
2023-02-11T03:48:16.251Z,20.12
2023-02-11T03:50:46.649Z,20.88
2023-02-11T03:53:15.255Z,20.42
2023-02-11T03:55:44.077Z,20.92
2023-02-11T03:58:11.760Z,24.58
2023-02-11T04:00:41.578Z,26.77
2023-02-11T04:03:10.596Z,26.33
2023-02-11T04:05:38.076Z,22.73
2023-02-11T04:08:05.798Z,22.02
2023-02-11T04:10:33.512Z,18.77
2023-02-11T04:13:00.742Z,19.90
2023-02-11T04:15:28.029Z,25.90
2023-02-11T04:17:55.716Z,29.10
2023-02-11T04:20:23.153Z,26.17
2023-02-11T04:22:50.481Z,30.65
2023-02-11T04:25:18.136Z,35.10
2023-02-11T04:27:45.409Z,34.95
2023-02-11T04:30:13.438Z,32.08
2023-02-11T04:32:41.102Z,31.10
2023-02-11T04:35:08.794Z,39.15
2023-02-11T04:37:36.104Z,28.33
2023-02-11T04:40:04.696Z,63.45
2023-02-11T04:42:32.051Z,37.92
2023-02-11T04:44:59.397Z,26.65
2023-02-11T04:47:27.069Z,22.67
2023-02-11T04:49:54.531Z,21.35
2023-02-11T04:52:21.865Z,20.45
2023-02-11T04:54:49.582Z,26.90
2023-02-11T04:57:17.037Z,30.83
2023-02-11T04:59:44.407Z,27.13
2023-02-11T05:02:12.065Z,26.42
2023-02-11T05:04:39.422Z,29.95
2023-02-11T05:07:06.839Z,22.37
2023-02-11T05:09:34.455Z,27.58
2023-02-11T05:12:01.799Z,30.17
2023-02-11T05:14:29.053Z,32.20
2023-02-11T05:16:56.683Z,39.05
2023-02-11T05:19:24.033Z,59.83
2023-02-11T05:22:02.176Z,57.65
2023-02-11T05:26:58.974Z,26.80
2023-02-11T05:29:26.328Z,25.37
2023-02-11T05:31:54.101Z,28.38
2023-02-11T05:34:21.498Z,25.00
2023-02-11T05:36:48.746Z,20.23
2023-02-11T05:39:16.436Z,19.35
2023-02-11T05:41:43.900Z,20.40
2023-02-11T05:44:11.464Z,36.03
2023-02-11T05:46:39.253Z,39.70
2023-02-11T05:49:06.649Z,50.35
2023-02-11T05:51:34.083Z,51.00
2023-02-11T05:54:01.901Z,46.90
2023-02-11T05:56:29.213Z,54.13
2023-02-11T05:58:58.473Z,40.60
2023-02-11T06:01:26.959Z,41.05
2023-02-11T06:03:55.227Z,32.28
2023-02-11T06:06:22.582Z,55.78
2023-02-11T06:08:50.018Z,56.70
2023-02-11T06:11:18.102Z,57.97
2023-02-11T06:13:45.518Z,41.75
2023-02-11T06:16:12.924Z,45.40
2023-02-11T06:18:40.654Z,39.33
2023-02-11T06:21:12.390Z,33.35
2023-02-11T06:23:39.938Z,52.33
2023-02-11T06:26:09.704Z,47.78
2023-02-11T06:31:09.940Z,62.17
2023-02-11T06:33:38.183Z,67.35
2023-02-11T06:36:12.806Z,53.13
2023-02-11T06:38:40.674Z,52.15
2023-02-11T06:41:13.665Z,50.05
2023-02-11T06:43:42.061Z,46.45
2023-02-11T06:46:09.919Z,38.40
2023-02-11T06:48:37.322Z,34.88
2023-02-11T06:51:07.434Z,34.22
2023-02-11T06:53:41.417Z,64.60
2023-02-11T06:56:12.862Z,74.35
2023-02-11T06:58:40.175Z,59.50
2023-02-11T07:01:09.499Z,51.67
2023-02-11T07:03:39.542Z,43.70
2023-02-11T07:06:08.489Z,42.40
2023-02-11T07:08:36.777Z,36.33
2023-02-11T07:11:12.597Z,40.22
2023-02-11T07:13:40.095Z,45.30
2023-02-11T07:16:14.067Z,40.03
2023-02-11T07:18:41.811Z,39.03
2023-02-11T07:21:11.980Z,38.92
2023-02-11T07:23:42.512Z,39.53
2023-02-11T07:26:14.719Z,35.42
2023-02-11T07:28:42.752Z,25.37
2023-02-11T07:31:18.726Z,18.90
2023-02-11T07:33:46.412Z,21.37
2023-02-11T07:36:15.804Z,17.60
2023-02-11T07:38:43.393Z,17.33
2023-02-11T07:41:13.691Z,16.95
2023-02-11T07:43:42.364Z,18.92
2023-02-11T07:46:16.990Z,20.98
2023-02-11T07:48:44.854Z,20.92
2023-02-11T07:51:23.524Z,23.40
2023-02-11T07:53:52.299Z,23.50
2023-02-11T07:56:20.666Z,25.77
2023-02-11T07:58:49.000Z,27.45
2023-02-11T08:01:25.239Z,25.05
2023-02-11T08:03:54.057Z,22.20
2023-02-11T08:06:23.055Z,32.00
2023-02-11T08:08:50.818Z,33.05
2023-02-11T08:11:21.639Z,30.00
2023-02-11T08:13:49.081Z,30.90
2023-02-11T08:16:31.741Z,31.55
2023-02-11T08:19:01.950Z,33.38
2023-02-11T08:21:29.856Z,39.55
2023-02-11T08:23:57.467Z,37.40
2023-02-11T08:26:28.526Z,52.65
2023-02-11T08:28:57.723Z,36.30
2023-02-11T08:31:31.253Z,30.45
2023-02-11T08:33:59.145Z,16.42
2023-02-11T08:36:32.529Z,15.45
2023-02-11T08:39:18.202Z,15.63
2023-02-11T08:41:53.155Z,18.35
2023-02-11T08:44:21.620Z,17.75
2023-02-11T08:46:50.421Z,17.98
2023-02-11T08:49:18.154Z,16.75
2023-02-11T08:51:46.486Z,19.33
2023-02-11T08:54:14.838Z,21.08
2023-02-11T08:56:42.223Z,20.43
2023-02-11T08:59:13.843Z,19.17
2023-02-11T09:01:41.784Z,25.67
2023-02-11T09:04:10.752Z,18.40
2023-02-11T09:06:38.092Z,25.40
2023-02-11T09:09:06.032Z,18.07
2023-02-11T09:11:35.864Z,18.10
2023-02-11T09:14:05.061Z,21.27
2023-02-11T09:16:36.741Z,21.10
2023-02-11T09:19:05.798Z,24.20
2023-02-11T09:24:00.805Z,19.90
2023-02-11T09:26:35.320Z,19.83
2023-02-11T09:29:04.883Z,19.13
2023-02-11T09:31:34.011Z,19.45
2023-02-11T09:34:05.959Z,18.70
2023-02-11T09:36:39.151Z,18.47
2023-02-11T09:39:17.148Z,17.47
2023-02-11T09:42:09.837Z,16.80
2023-02-11T09:44:38.847Z,18.10
2023-02-11T09:47:30.576Z,17.70
2023-02-11T09:50:04.430Z,19.40
2023-02-11T09:52:49.178Z,18.40
2023-02-11T09:55:25.350Z,17.87
2023-02-11T09:57:53.285Z,18.70
2023-02-11T10:00:27.747Z,19.30
2023-02-11T10:03:04.131Z,21.57
2023-02-11T10:05:34.175Z,23.37
2023-02-11T10:08:14.624Z,20.47
2023-02-11T10:10:59.097Z,19.03
2023-02-11T10:13:29.902Z,21.30
2023-02-11T10:16:10.463Z,18.00
2023-02-11T10:18:41.641Z,21.07
2023-02-11T10:21:33.015Z,17.83
2023-02-11T10:24:05.696Z,16.43
2023-02-11T10:26:34.617Z,23.27
2023-02-11T10:29:11.767Z,29.55
2023-02-11T10:31:45.222Z,17.77
2023-02-11T10:34:14.979Z,24.10
2023-02-11T10:39:12.904Z,19.60
2023-02-11T10:42:03.220Z,19.17
2023-02-11T10:44:46.094Z,14.97
2023-02-11T10:47:22.586Z,16.50
2023-02-11T10:49:50.203Z,18.00
2023-02-11T10:52:17.877Z,17.73
2023-02-11T10:55:27.973Z,17.70
2023-02-11T10:58:03.661Z,16.20
2023-02-11T11:00:43.437Z,17.87
2023-02-11T11:03:25.737Z,17.20
2023-02-11T11:06:02.074Z,14.93
2023-02-11T11:08:49.916Z,15.13
2023-02-11T11:11:22.404Z,17.13
2023-02-11T11:13:53.046Z,16.17
2023-02-11T11:16:32.503Z,17.03
2023-02-11T11:19:24.569Z,16.97
2023-02-11T11:21:54.287Z,15.80
2023-02-11T11:24:34.776Z,14.73
2023-02-11T11:27:04.517Z,16.50
2023-02-11T11:29:39.623Z,13.63
2023-02-11T11:32:15.704Z,13.30
2023-02-11T11:34:50.887Z,15.83
2023-02-11T11:37:28.939Z,39.40
2023-02-11T11:40:01.800Z,22.73
2023-02-11T11:42:30.593Z,55.63
2023-02-11T11:45:25.940Z,48.75
2023-02-11T11:47:59.959Z,79.03
2023-02-11T11:50:45.095Z,29.00
2023-02-11T11:53:44.817Z,40.10
2023-02-11T11:56:27.721Z,24.33
2023-02-11T11:58:55.163Z,15.00
2023-02-11T12:01:58.325Z,15.13
2023-02-11T12:04:35.035Z,17.63
2023-02-11T12:07:30.350Z,15.40
2023-02-11T12:10:26.737Z,14.77
2023-02-11T12:13:18.781Z,13.37
2023-02-11T12:15:58.722Z,14.80
2023-02-11T12:18:49.344Z,15.97
2023-02-11T12:21:23.096Z,13.80
2023-02-11T12:24:16.941Z,20.00
2023-02-11T12:26:53.236Z,18.80
2023-02-11T12:29:49.041Z,31.10
2023-02-11T12:32:36.602Z,18.27
2023-02-11T12:35:21.057Z,40.67
2023-02-11T12:38:36.999Z,20.63
2023-02-11T12:42:04.319Z,32.23
2023-02-11T12:44:56.231Z,15.73
2023-02-11T12:48:03.176Z,14.90
2023-02-11T12:50:55.167Z,13.93
2023-02-11T12:53:34.406Z,12.97
2023-02-11T12:56:53.202Z,13.20
2023-02-11T12:59:55.593Z,12.48
2023-02-11T13:02:54.657Z,13.30
2023-02-11T13:05:32.315Z,12.75
2023-02-11T13:08:41.528Z,14.13
2023-02-11T13:11:15.192Z,10.68
2023-02-11T13:13:45.580Z,18.00
2023-02-11T13:16:37.044Z,20.53
2023-02-11T13:19:13.920Z,28.00
2023-02-11T13:22:06.220Z,31.40
2023-02-11T13:24:49.601Z,25.10
2023-02-11T13:27:30.192Z,18.00
2023-02-11T13:30:14.171Z,30.07
2023-02-11T13:32:56.853Z,21.90
2023-02-11T13:35:56.742Z,22.57
2023-02-11T13:38:29.807Z,17.17
2023-02-11T13:41:18.483Z,18.53
2023-02-11T13:44:01.777Z,19.10
2023-02-11T13:46:50.101Z,16.33
2023-02-11T13:49:28.174Z,15.20
2023-02-11T13:51:57.395Z,14.90
2023-02-11T13:54:33.546Z,13.62
2023-02-11T13:57:16.682Z,15.37
2023-02-11T13:59:47.379Z,14.73
2023-02-11T14:02:49.623Z,15.03
2023-02-11T14:05:43.555Z,15.10
2023-02-11T14:08:29.277Z,13.80
2023-02-11T14:10:58.570Z,12.20
2023-02-11T14:13:29.061Z,13.30
2023-02-11T14:16:14.006Z,12.80
2023-02-11T14:18:47.427Z,12.53
2023-02-11T14:21:33.416Z,14.40
2023-02-11T14:24:05.191Z,14.13
2023-02-11T14:26:59.392Z,14.83
2023-02-11T14:29:35.207Z,15.73
2023-02-11T14:32:26.675Z,18.70
2023-02-11T14:34:54.069Z,17.00
2023-02-11T14:37:50.923Z,16.90
2023-02-11T14:40:42.112Z,17.57
2023-02-11T14:43:17.120Z,26.03
2023-02-11T14:45:50.329Z,17.77
2023-02-11T14:48:20.256Z,27.90
2023-02-11T14:50:59.374Z,29.03
2023-02-11T14:53:30.739Z,26.00
2023-02-11T14:55:59.512Z,22.60
2023-02-11T14:58:32.678Z,22.47
2023-02-11T15:01:03.984Z,23.20
2023-02-11T15:03:37.844Z,38.87
2023-02-11T15:06:07.537Z,46.47
2023-02-11T15:08:38.493Z,24.37
2023-02-11T15:11:12.232Z,24.23
2023-02-11T15:13:47.579Z,33.33
2023-02-11T15:16:19.898Z,43.23
2023-02-11T15:18:54.361Z,30.97
2023-02-11T15:21:28.061Z,36.47
2023-02-11T15:24:06.381Z,31.00
2023-02-11T15:26:34.439Z,26.47
2023-02-11T15:29:02.149Z,18.60
2023-02-11T15:31:30.726Z,16.60
2023-02-11T15:34:07.915Z,28.17
2023-02-11T15:36:36.564Z,16.00
2023-02-11T15:39:29.484Z,45.03
2023-02-11T15:41:57.540Z,84.13
2023-02-11T15:44:30.792Z,118.60
2023-02-11T15:46:59.276Z,124.50
2023-02-11T15:49:27.125Z,112.03
2023-02-11T15:51:57.401Z,115.27
2023-02-11T15:54:29.641Z,134.50
2023-02-11T15:57:04.053Z,106.03
2023-02-11T15:59:40.796Z,93.33
2023-02-11T16:02:17.377Z,79.13
2023-02-11T16:04:52.146Z,78.57
2023-02-11T16:07:37.994Z,68.70
2023-02-11T16:10:22.593Z,61.30
2023-02-11T16:12:53.680Z,76.67
2023-02-11T16:15:34.053Z,62.77
2023-02-11T16:18:03.754Z,67.00
2023-02-11T16:20:32.169Z,65.33
2023-02-11T16:23:00.002Z,76.73
2023-02-11T16:25:27.384Z,74.07
2023-02-11T16:27:55.179Z,62.20
2023-02-11T16:30:40.780Z,53.07
2023-02-11T16:33:11.184Z,50.17
2023-02-11T16:35:38.778Z,49.57
2023-02-11T16:38:06.517Z,45.83
2023-02-11T16:40:34.311Z,41.03
2023-02-11T16:43:01.781Z,46.57
2023-02-11T16:45:29.168Z,47.37
2023-02-11T16:47:56.854Z,48.07
2023-02-11T16:50:25.625Z,45.33
2023-02-11T16:52:53.102Z,45.17
2023-02-11T16:55:22.058Z,42.10
2023-02-11T16:57:49.992Z,41.78
2023-02-11T17:00:18.240Z,46.10
2023-02-11T17:02:46.133Z,63.00
2023-02-11T17:05:25.282Z,68.50
2023-02-11T17:10:22.668Z,63.10
2023-02-11T17:12:51.530Z,60.73
2023-02-11T17:15:19.598Z,52.75
2023-02-11T17:17:46.871Z,46.17
2023-02-11T17:20:15.052Z,39.67
2023-02-11T17:22:42.764Z,47.10
2023-02-11T17:25:10.782Z,54.57
2023-02-11T17:27:40.643Z,59.33
2023-02-11T17:30:09.124Z,69.87
2023-02-11T17:32:37.428Z,106.83
2023-02-11T17:35:07.755Z,78.90
2023-02-11T17:37:35.576Z,77.80
2023-02-11T17:40:02.948Z,74.05
2023-02-11T17:42:33.752Z,70.40
2023-02-11T17:45:01.439Z,64.67
2023-02-11T17:47:32.160Z,74.37
2023-02-11T17:49:59.839Z,62.75
2023-02-11T17:52:28.346Z,52.47
2023-02-11T17:54:56.209Z,49.28
2023-02-11T17:57:23.567Z,56.92
2023-02-11T17:59:51.784Z,52.50
2023-02-11T18:02:19.194Z,50.85
2023-02-11T18:04:46.914Z,49.40
2023-02-11T18:07:14.547Z,45.95
2023-02-11T18:09:42.347Z,44.60
2023-02-11T18:12:10.997Z,47.62
2023-02-11T18:14:40.608Z,44.58
2023-02-11T18:17:08.165Z,49.35
2023-02-11T18:19:36.791Z,48.30
2023-02-11T18:22:04.545Z,44.75
2023-02-11T18:24:31.936Z,46.90
2023-02-11T18:26:59.817Z,45.05
2023-02-11T18:29:27.590Z,47.35
2023-02-11T18:31:56.897Z,59.97
2023-02-11T18:34:25.660Z,67.93
2023-02-11T18:36:53.201Z,84.25
2023-02-11T18:39:24.400Z,74.65
2023-02-11T18:41:55.374Z,59.03
2023-02-11T18:44:24.974Z,47.40
2023-02-11T18:46:54.295Z,42.67
2023-02-11T18:49:21.712Z,45.28
2023-02-11T18:51:49.057Z,71.62
2023-02-11T18:54:16.812Z,61.20
2023-02-11T18:56:44.321Z,40.83
2023-02-11T18:59:12.716Z,25.73
2023-02-11T19:01:43.429Z,49.85
2023-02-11T19:04:11.594Z,97.25
2023-02-11T19:06:39.195Z,79.65
2023-02-11T19:09:10.089Z,72.28
2023-02-11T19:11:49.982Z,76.85
2023-02-11T19:14:32.162Z,126.15
2023-02-11T19:17:01.766Z,141.70
2023-02-11T19:19:32.716Z,125.68
2023-02-11T19:22:00.796Z,109.82
2023-02-11T19:24:29.574Z,94.65
2023-02-11T19:27:00.663Z,128.23
2023-02-11T19:29:29.405Z,123.93
2023-02-11T19:31:57.378Z,113.72
2023-02-11T19:34:24.963Z,118.72
2023-02-11T19:36:53.531Z,89.22
2023-02-11T19:39:21.411Z,97.40
2023-02-11T19:41:48.948Z,92.95
2023-02-11T19:44:16.850Z,96.60
2023-02-11T19:46:46.135Z,106.03
2023-02-11T19:49:23.260Z,115.68
2023-02-11T19:51:52.568Z,102.32
2023-02-11T19:54:20.828Z,93.70
2023-02-11T19:56:49.562Z,64.10
2023-02-11T19:59:18.128Z,57.80
2023-02-11T20:01:47.877Z,72.85
2023-02-11T20:04:17.322Z,73.30
2023-02-11T20:06:45.188Z,72.20
2023-02-11T20:09:15.082Z,77.20
2023-02-11T20:11:42.989Z,79.30
2023-02-11T20:14:14.875Z,77.85
2023-02-11T20:16:49.095Z,72.62
2023-02-11T20:19:19.700Z,52.85
2023-02-11T20:21:49.342Z,62.40
2023-02-11T20:24:19.120Z,82.20
2023-02-11T20:26:48.789Z,70.05
2023-02-11T20:29:19.421Z,38.40
2023-02-11T20:31:49.697Z,33.50
2023-02-11T20:34:18.034Z,62.30
2023-02-11T20:36:53.029Z,63.58
2023-02-11T20:39:23.589Z,78.53
2023-02-11T20:41:51.965Z,87.70
2023-02-11T20:44:21.908Z,93.78
2023-02-11T20:46:50.781Z,87.68
2023-02-11T20:49:21.685Z,93.40
2023-02-11T20:51:49.800Z,96.75
2023-02-11T20:54:20.337Z,133.57
2023-02-11T20:56:48.504Z,129.18
2023-02-11T20:59:17.037Z,97.30
2023-02-11T21:01:47.958Z,79.28
2023-02-11T21:04:24.526Z,54.97
2023-02-11T21:06:55.207Z,69.30
2023-02-11T21:09:25.996Z,104.47
2023-02-11T21:11:54.404Z,92.35
2023-02-11T21:14:24.193Z,97.05
2023-02-11T21:16:52.225Z,94.13
2023-02-11T21:19:20.430Z,81.93
2023-02-11T21:21:48.098Z,71.87
2023-02-11T21:24:15.862Z,68.25
2023-02-11T21:26:43.892Z,70.10
2023-02-11T21:29:12.029Z,83.47
2023-02-11T21:31:40.239Z,80.72
2023-02-11T21:34:08.421Z,83.15
2023-02-11T21:36:35.923Z,91.50
2023-02-11T21:39:04.420Z,72.43
2023-02-11T21:41:32.140Z,66.57
2023-02-11T21:43:59.680Z,68.28
2023-02-11T21:46:28.197Z,75.15
2023-02-11T21:48:56.859Z,76.90
2023-02-11T21:51:25.867Z,76.70
2023-02-11T21:53:55.153Z,103.62
2023-02-11T21:56:24.835Z,107.97
2023-02-11T22:01:31.870Z,100.28
2023-02-11T22:06:31.201Z,94.82
2023-02-11T22:09:02.168Z,79.07
2023-02-11T22:11:29.908Z,77.37
2023-02-11T22:13:58.020Z,79.20
2023-02-11T22:16:27.140Z,78.97
2023-02-11T22:18:57.020Z,84.28
2023-02-11T22:21:25.151Z,89.68
2023-02-11T22:23:54.643Z,75.75
2023-02-11T22:26:24.012Z,71.87
2023-02-11T22:28:52.726Z,77.70
2023-02-11T22:31:24.411Z,76.55
2023-02-11T22:33:52.317Z,67.68
2023-02-11T22:36:29.404Z,83.70
2023-02-11T22:39:01.629Z,89.50
2023-02-11T22:41:29.211Z,92.57
2023-02-11T22:43:56.945Z,90.78
2023-02-11T22:46:24.441Z,70.25
2023-02-11T22:48:52.564Z,80.90
2023-02-11T22:51:25.968Z,67.62
2023-02-11T22:53:58.967Z,51.95
2023-02-11T22:56:28.033Z,44.33
2023-02-11T22:59:00.074Z,44.15
2023-02-11T23:01:29.554Z,40.63
2023-02-11T23:03:58.916Z,39.13
2023-02-11T23:08:54.150Z,69.72
2023-02-11T23:11:25.675Z,83.65
2023-02-11T23:13:54.082Z,48.60
2023-02-11T23:16:25.896Z,52.22
2023-02-11T23:18:54.961Z,56.28
2023-02-11T23:21:25.301Z,51.97
2023-02-11T23:24:02.048Z,38.70
2023-02-11T23:26:30.002Z,37.80
2023-02-11T23:28:59.058Z,32.72
2023-02-11T23:31:30.117Z,25.25
2023-02-11T23:33:57.855Z,23.73
2023-02-11T23:36:25.282Z,26.83
2023-02-11T23:38:52.644Z,30.02
2023-02-11T23:41:20.860Z,29.25
2023-02-11T23:43:53.516Z,31.27
2023-02-11T23:46:22.297Z,30.10
2023-02-11T23:48:52.093Z,33.20
2023-02-11T23:51:20.391Z,37.72
2023-02-11T23:53:49.472Z,44.63
2023-02-11T23:56:22.789Z,39.13
2023-02-11T23:58:52.344Z,39.08
